Aérodrome :
LOGIN :

S'inscrire | Disclaimer

   EN    FR    IT 

 










Légende :    VFR   VFR Marginal   IFR   IFR Intensif   IFR Très Intensif
Visi : 
Plafond : 
>= 8 km
>= 3000ft
5 à 8 km
1000 à 3000 ft
1500m à 5 km
500 à 1000 ft
800 à 1500m
200 à 500 ft
< 800m
< 200 ft
Symboles :   Orages  Brouillard  Fortes neiges  Fortes précipitations  Vent > 20 kt
SIGMETs :   Divers  Orages  Givrage  Turbulence  Onde Orograph.  Cendres Volcan.






- Altitude de l'aérodrome : 72 ft
- Code IATA : UDE


EHVK - Volkel Airbase

DERNIER METAR :
  • 210425Z AUTO 33003KT 280V360 7000 BR OVC075 07/05 Q1016 WHT

METARs EXPIRÉS :
  • 210358Z AUTO 33003KT 300V360 7000 BR BKN072 07/05 Q1016 WHT
  • 210355Z AUTO 34004KT 8000 BR FEW015CB BKN072 07/05 Q1016 BLU
  • 210325Z AUTO 33003KT 9000 BR FEW015CB BKN071 06/04 Q1016 BLU
  • 210255Z AUTO 34003KT 9999 OVC070 06/04 Q1016 BLU
  • 210225Z AUTO 33004KT 9999 SCT055 BKN063 BKN068 07/04 Q1016 BLU
  • 210155Z AUTO 34002KT 9999 SCT060 SCT071 06/04 Q1016 BLU

TAF TAF EHVK
Valide du 21 à 01h jusqu'au 21 à 13h UTC


210030Z 2101/2113 32003KT 9000 NSC
PROB30 2101/2106 3000 BR
BECMG 2109/2112 36010KT



MET'MAP, la Météo Aéronautique d'un coup d'oeil ! - Copyright ORBIFLY Décembre 2007 - Disclaimer

ORBIFLY MET'MAP TEAM :

Programmation & Développement : Alexandra Zaïnal
Sur une idée originale de : Baudouin d'Aumeries
Assistance à la programmation : Marc-Olivier Méhu
Soutien technique & logistique : Manuel Goepfert

Contact : metmap@orbifly.com




SOURCES & CREDITS :

   NOAA